createdAt,value
2022-12-19T00:03:06.191Z,88.42
2022-12-19T00:10:08.916Z,88.15
2022-12-19T00:17:10.868Z,88.02
2022-12-19T00:24:21.271Z,87.75
2022-12-19T00:31:24.193Z,87.64
2022-12-19T00:38:26.549Z,87.46
2022-12-19T00:45:28.976Z,87.52
2022-12-19T00:52:32.452Z,87.26
2022-12-19T00:59:35.707Z,87.96
2022-12-19T01:06:37.795Z,88.20
2022-12-19T01:13:41.043Z,87.85
2022-12-19T01:20:47.624Z,87.63
2022-12-19T01:27:49.541Z,87.46
2022-12-19T01:34:51.467Z,87.12
2022-12-19T01:41:57.323Z,86.49
2022-12-19T01:48:59.696Z,86.66
2022-12-19T01:56:09.265Z,86.48
2022-12-19T02:03:23.183Z,86.11
2022-12-19T02:10:25.307Z,86.28
2022-12-19T02:17:54.852Z,86.47
2022-12-19T02:24:56.721Z,86.38
2022-12-19T02:32:09.741Z,86.24
2022-12-19T02:39:20.072Z,85.85
2022-12-19T02:46:23.341Z,85.97
2022-12-19T02:53:25.553Z,85.09
2022-12-19T03:00:28.938Z,85.17
2022-12-19T03:07:34.747Z,85.14
2022-12-19T03:14:37.304Z,84.98
2022-12-19T03:21:44.202Z,84.81
2022-12-19T03:28:55.532Z,85.33
2022-12-19T03:35:58.728Z,85.32
2022-12-19T03:43:11.325Z,85.12
2022-12-19T03:50:13.696Z,84.27
2022-12-19T03:57:20.353Z,84.14
2022-12-19T04:04:24.098Z,84.10
2022-12-19T04:11:28.136Z,84.38
2022-12-19T04:18:31.077Z,84.42
2022-12-19T04:25:39.800Z,83.87
2022-12-19T04:32:45.584Z,83.97
2022-12-19T04:39:47.670Z,83.51
2022-12-19T04:46:49.914Z,83.61
2022-12-19T04:53:52.146Z,82.94
2022-12-19T05:00:54.372Z,82.84
2022-12-19T05:07:56.483Z,82.73
2022-12-19T05:14:58.447Z,82.68
2022-12-19T05:22:00.406Z,82.89
2022-12-19T05:29:02.852Z,82.91
2022-12-19T05:36:05.691Z,82.58
2022-12-19T05:43:11.009Z,82.28
2022-12-19T05:50:17.823Z,82.53
2022-12-19T05:57:19.821Z,82.62
2022-12-19T06:04:21.848Z,82.51
2022-12-19T06:11:24.251Z,82.48
2022-12-19T06:18:26.766Z,82.43
2022-12-19T06:25:28.776Z,82.12
2022-12-19T06:32:36.218Z,81.79
2022-12-19T06:39:39.683Z,81.42
2022-12-19T06:46:42.349Z,80.74
2022-12-19T06:53:44.793Z,80.17
2022-12-19T07:00:47.170Z,79.50
2022-12-19T07:07:50.543Z,78.95
2022-12-19T07:14:53.689Z,78.16
2022-12-19T07:21:57.425Z,78.03
2022-12-19T07:29:00.363Z,77.85
2022-12-19T07:36:02.481Z,77.44
2022-12-19T07:43:07.122Z,76.75
2022-12-19T07:50:10.339Z,76.77
2022-12-19T07:57:12.928Z,76.43
2022-12-19T08:04:15.393Z,76.51
2022-12-19T08:11:26.665Z,77.02
2022-12-19T08:18:30.359Z,77.39
2022-12-19T08:25:32.805Z,76.78
2022-12-19T08:32:35.164Z,76.62
2022-12-19T08:39:39.300Z,76.90
2022-12-19T08:46:46.526Z,76.24
2022-12-19T08:53:51.869Z,75.91
2022-12-19T09:00:57.559Z,76.03
2022-12-19T09:08:01.254Z,76.24
2022-12-19T09:15:03.464Z,75.73
2022-12-19T09:22:05.400Z,75.23
2022-12-19T09:29:12.551Z,75.32
2022-12-19T09:36:24.859Z,75.08
2022-12-19T09:43:51.381Z,74.77
2022-12-19T09:51:10.174Z,74.84
2022-12-19T09:58:14.744Z,74.81
2022-12-19T10:05:30.535Z,73.65
2022-12-19T10:12:58.516Z,73.41
2022-12-19T10:20:09.985Z,72.70
2022-12-19T10:27:21.114Z,72.61
2022-12-19T10:34:25.850Z,73.09
2022-12-19T10:41:32.422Z,73.09
2022-12-19T10:48:35.166Z,72.71
2022-12-19T10:55:51.543Z,72.63
2022-12-19T11:03:19.262Z,72.05
2022-12-19T11:11:24.735Z,71.29
2022-12-19T11:24:18.017Z,71.68
2022-12-19T11:30:05.577Z,71.41
2022-12-19T11:33:18.488Z,70.64
2022-12-19T11:40:39.408Z,71.02
2022-12-19T11:48:19.056Z,70.32
2022-12-19T11:55:26.431Z,69.98
2022-12-19T12:02:34.733Z,70.32
2022-12-19T12:13:04.195Z,69.92
2022-12-19T12:27:47.329Z,70.45
2022-12-19T12:31:46.813Z,70.04
2022-12-19T12:35:40.507Z,69.48
2022-12-19T12:40:03.367Z,69.70
2022-12-19T12:47:28.319Z,69.35
2022-12-19T12:54:35.308Z,69.36
2022-12-19T13:01:40.589Z,69.57
2022-12-19T13:08:47.974Z,70.32
2022-12-19T13:15:50.378Z,70.15
2022-12-19T13:22:58.555Z,69.65
2022-12-19T13:30:00.756Z,70.00
2022-12-19T13:39:51.849Z,70.61
2022-12-19T13:44:50.208Z,71.03
2022-12-19T13:51:57.596Z,71.11
2022-12-19T13:59:04.384Z,71.16
2022-12-19T14:06:19.655Z,71.28
2022-12-19T14:14:00.888Z,71.27
2022-12-19T14:22:06.855Z,71.00
2022-12-19T14:28:47.571Z,71.22
2022-12-19T14:36:12.110Z,71.79
2022-12-19T14:44:00.463Z,71.23
2022-12-19T14:54:33.974Z,71.20
2022-12-19T14:58:55.831Z,71.79
2022-12-19T15:07:05.638Z,72.22
2022-12-19T15:14:50.794Z,72.28
2022-12-19T15:21:20.840Z,72.31
2022-12-19T15:28:31.188Z,72.52
2022-12-19T15:35:38.750Z,72.89
2022-12-19T15:42:44.727Z,73.15
2022-12-19T15:49:49.699Z,73.36
2022-12-19T15:56:55.949Z,73.68
2022-12-19T16:03:59.646Z,73.96
2022-12-19T16:11:02.465Z,74.40
2022-12-19T16:18:04.617Z,74.57
2022-12-19T16:25:07.861Z,75.03
2022-12-19T16:32:13.340Z,75.16
2022-12-19T16:39:16.041Z,75.35
2022-12-19T16:46:20.708Z,75.83
2022-12-19T16:53:22.913Z,75.65
2022-12-19T17:00:25.528Z,75.76
2022-12-19T17:07:29.193Z,75.85
2022-12-19T17:14:32.360Z,75.91
2022-12-19T17:21:34.360Z,75.64
2022-12-19T17:28:36.917Z,75.72
2022-12-19T17:35:39.529Z,75.82
2022-12-19T17:42:41.514Z,76.25
2022-12-19T17:49:43.838Z,76.31
2022-12-19T17:56:45.933Z,76.79
2022-12-19T18:03:49.309Z,76.21
2022-12-19T18:10:52.679Z,76.66
2022-12-19T18:17:55.461Z,76.79
2022-12-19T18:24:57.549Z,77.33
2022-12-19T18:32:00.093Z,77.17
2022-12-19T18:39:03.361Z,77.42
2022-12-19T18:46:06.956Z,77.20
2022-12-19T18:53:22.511Z,77.46
2022-12-19T19:00:27.157Z,77.77
2022-12-19T19:07:30.776Z,78.02
2022-12-19T19:14:33.447Z,77.91
2022-12-19T19:21:36.453Z,77.85
2022-12-19T19:28:39.712Z,78.27
2022-12-19T19:35:44.190Z,78.40
2022-12-19T19:42:46.638Z,77.94
2022-12-19T19:49:50.227Z,78.43
2022-12-19T19:56:52.818Z,78.47
2022-12-19T20:03:55.631Z,78.44
2022-12-19T20:10:59.003Z,78.95
2022-12-19T20:18:01.065Z,78.76
2022-12-19T20:25:03.589Z,78.87
2022-12-19T20:32:06.488Z,78.86
2022-12-19T20:39:08.992Z,79.14
2022-12-19T20:46:13.748Z,79.26
2022-12-19T20:53:15.695Z,79.36
2022-12-19T21:00:18.409Z,79.38
2022-12-19T21:07:20.660Z,79.71
2022-12-19T21:14:22.681Z,79.65
2022-12-19T21:21:29.532Z,79.79
2022-12-19T21:28:34.975Z,79.53
2022-12-19T21:35:38.461Z,79.87
2022-12-19T21:42:40.668Z,79.89
2022-12-19T21:49:42.886Z,79.88
2022-12-19T21:56:45.096Z,79.65
2022-12-19T22:03:47.763Z,79.73
2022-12-19T22:10:50.049Z,79.41
2022-12-19T22:17:52.026Z,79.65
2022-12-19T22:24:54.069Z,79.44
2022-12-19T22:31:56.037Z,79.83
2022-12-19T22:38:59.373Z,80.08
2022-12-19T22:46:15.440Z,80.12
2022-12-19T22:53:19.990Z,80.20
2022-12-19T23:00:22.544Z,80.39
2022-12-19T23:07:25.186Z,80.52
2022-12-19T23:14:27.781Z,80.59
2022-12-19T23:21:31.041Z,80.93
2022-12-19T23:28:33.467Z,80.79
2022-12-19T23:35:35.582Z,80.70
2022-12-19T23:42:38.201Z,80.67
2022-12-19T23:49:40.512Z,81.05
2022-12-19T23:56:42.492Z,81.43
